KISO

Kinston Regional Jetport at Stallings Field Airport

Kinston, North Carolina, USA
METAR KISO 210415Z AUTO 21006KT 10SM CLR 05/M04 A3020 RMK AO2 T00461036
Observed Flight Rules
Jan-21 @ 04:15 UTC (19 minutes ago) Visual Flight Rules
Wind Visibility Clouds
210° at 6 knots 10 miles
  • Clear skies
Temperatures Readings
Current 5°C / 41°F
Dewpoint -4°C / 25°F
Humidity 53%
Altimeter 30.2" Hg
Pressure 1023 hPa
Elevation 29
METAR KISO 210415Z AUTO 21006KT 10SM CLR 05/M04 A3020 RMK AO2 T00461036
Observed Flight Rules
Jan-21 @ 04:15 UTC
(19 minutes ago)
VFR
Wind Visibility
210° at 6 knots 10 miles
Clouds
  • Clear skies
Temperature Dewpoint
5°C / 41°F -4°C / 25°F
Humidity Altimeter Pressure
53% 30.2" Hg 1023 hPa